sensor_id;sensor_type;location;lat;lon;timestamp;temperature;humidity
38090;DHT22;23904;52.322;10.232;2022-09-12T00:00:49;14.30;99.90
38090;DHT22;23904;52.322;10.232;2022-09-12T00:03:15;14.20;99.90
38090;DHT22;23904;52.322;10.232;2022-09-12T00:05:46;14.20;99.90
38090;DHT22;23904;52.322;10.232;2022-09-12T00:08:12;14.10;99.90
38090;DHT22;23904;52.322;10.232;2022-09-12T00:10:40;14.10;99.90
38090;DHT22;23904;52.322;10.232;2022-09-12T00:13:07;14.10;99.90
38090;DHT22;23904;52.322;10.232;2022-09-12T00:15:40;14.10;99.90
38090;DHT22;23904;52.322;10.232;2022-09-12T00:18:14;14.00;99.90
38090;DHT22;23904;52.322;10.232;2022-09-12T00:20:45;14.00;99.90
38090;DHT22;23904;52.322;10.232;2022-09-12T00:23:12;14.00;99.90
38090;DHT22;23904;52.322;10.232;2022-09-12T00:25:47;14.00;99.90
38090;DHT22;23904;52.322;10.232;2022-09-12T00:28:14;14.00;99.90
38090;DHT22;23904;52.322;10.232;2022-09-12T00:30:42;14.00;99.90
38090;DHT22;23904;52.322;10.232;2022-09-12T00:33:09;14.00;99.90
38090;DHT22;23904;52.322;10.232;2022-09-12T00:35:43;14.00;99.90
38090;DHT22;23904;52.322;10.232;2022-09-12T00:38:11;13.90;99.90
38090;DHT22;23904;52.322;10.232;2022-09-12T00:40:38;13.80;99.90
38090;DHT22;23904;52.322;10.232;2022-09-12T00:43:04;13.90;99.90
38090;DHT22;23904;52.322;10.232;2022-09-12T00:45:30;13.90;99.90
38090;DHT22;23904;52.322;10.232;2022-09-12T00:48:00;13.80;99.90
38090;DHT22;23904;52.322;10.232;2022-09-12T00:50:28;13.90;99.90
38090;DHT22;23904;52.322;10.232;2022-09-12T00:52:57;13.80;99.90
38090;DHT22;23904;52.322;10.232;2022-09-12T00:55:28;13.90;99.90
38090;DHT22;23904;52.322;10.232;2022-09-12T00:58:13;13.80;99.90
38090;DHT22;23904;52.322;10.232;2022-09-12T01:00:43;13.80;99.90
38090;DHT22;23904;52.322;10.232;2022-09-12T01:03:11;13.80;99.90
38090;DHT22;23904;52.322;10.232;2022-09-12T01:05:48;13.70;99.90
38090;DHT22;23904;52.322;10.232;2022-09-12T01:08:18;13.70;99.90
38090;DHT22;23904;52.322;10.232;2022-09-12T01:10:45;13.60;99.90
38090;DHT22;23904;52.322;10.232;2022-09-12T01:13:11;13.50;99.90
38090;DHT22;23904;52.322;10.232;2022-09-12T01:15:37;13.60;99.90
38090;DHT22;23904;52.322;10.232;2022-09-12T01:18:23;13.50;99.90
38090;DHT22;23904;52.322;10.232;2022-09-12T01:21:19;13.50;99.90
38090;DHT22;23904;52.322;10.232;2022-09-12T01:24:33;13.50;99.90
38090;DHT22;23904;52.322;10.232;2022-09-12T01:30:51;13.40;99.90
38090;DHT22;23904;52.322;10.232;2022-09-12T01:33:42;13.40;99.90
38090;DHT22;23904;52.322;10.232;2022-09-12T01:36:31;13.40;99.90
38090;DHT22;23904;52.322;10.232;2022-09-12T01:40:04;13.50;99.90
38090;DHT22;23904;52.322;10.232;2022-09-12T01:45:17;13.40;99.90
38090;DHT22;23904;52.322;10.232;2022-09-12T01:48:01;13.40;99.90
38090;DHT22;23904;52.322;10.232;2022-09-12T01:51:03;13.40;99.90
38090;DHT22;23904;52.322;10.232;2022-09-12T01:53:49;13.40;99.90
38090;DHT22;23904;52.322;10.232;2022-09-12T01:56:21;13.30;99.90
38090;DHT22;23904;52.322;10.232;2022-09-12T02:01:27;13.30;99.90
38090;DHT22;23904;52.322;10.232;2022-09-12T02:06:43;13.20;99.90
38090;DHT22;23904;52.322;10.232;2022-09-12T02:09:19;13.20;99.90
38090;DHT22;23904;52.322;10.232;2022-09-12T02:11:51;13.20;99.90
38090;DHT22;23904;52.322;10.232;2022-09-12T02:14:28;13.20;99.90
38090;DHT22;23904;52.322;10.232;2022-09-12T02:17:05;13.20;99.90
38090;DHT22;23904;52.322;10.232;2022-09-12T02:19:39;13.20;99.90
38090;DHT22;23904;52.322;10.232;2022-09-12T02:22:36;13.20;99.90
38090;DHT22;23904;52.322;10.232;2022-09-12T02:25:04;13.20;99.90
38090;DHT22;23904;52.322;10.232;2022-09-12T02:27:45;13.10;99.90
38090;DHT22;23904;52.322;10.232;2022-09-12T02:30:14;13.10;99.90
38090;DHT22;23904;52.322;10.232;2022-09-12T02:33:05;13.10;99.90
38090;DHT22;23904;52.322;10.232;2022-09-12T02:35:42;13.10;99.90
38090;DHT22;23904;52.322;10.232;2022-09-12T02:38:32;13.10;99.90
38090;DHT22;23904;52.322;10.232;2022-09-12T02:41:02;13.10;99.90
38090;DHT22;23904;52.322;10.232;2022-09-12T02:43:28;13.10;99.90
38090;DHT22;23904;52.322;10.232;2022-09-12T02:45:53;13.10;99.90
38090;DHT22;23904;52.322;10.232;2022-09-12T02:48:28;13.10;99.90
38090;DHT22;23904;52.322;10.232;2022-09-12T02:50:56;13.10;99.90
38090;DHT22;23904;52.322;10.232;2022-09-12T02:53:22;13.10;99.90
38090;DHT22;23904;52.322;10.232;2022-09-12T02:55:48;13.10;99.90
38090;DHT22;23904;52.322;10.232;2022-09-12T02:58:18;13.10;99.90
38090;DHT22;23904;52.322;10.232;2022-09-12T03:03:57;13.00;99.90
38090;DHT22;23904;52.322;10.232;2022-09-12T03:06:38;13.00;99.90
38090;DHT22;23904;52.322;10.232;2022-09-12T03:12:08;12.90;99.90
38090;DHT22;23904;52.322;10.232;2022-09-12T03:15:21;12.90;99.90
38090;DHT22;23904;52.322;10.232;2022-09-12T03:18:29;12.80;99.90
38090;DHT22;23904;52.322;10.232;2022-09-12T03:26:47;12.70;99.90
38090;DHT22;23904;52.322;10.232;2022-09-12T03:29:18;12.70;99.90
38090;DHT22;23904;52.322;10.232;2022-09-12T03:31:53;12.70;99.90
38090;DHT22;23904;52.322;10.232;2022-09-12T03:34:22;12.60;99.90
38090;DHT22;23904;52.322;10.232;2022-09-12T03:36:49;12.60;99.90
38090;DHT22;23904;52.322;10.232;2022-09-12T03:39:15;12.60;99.90
38090;DHT22;23904;52.322;10.232;2022-09-12T03:41:41;12.60;99.90
38090;DHT22;23904;52.322;10.232;2022-09-12T03:44:07;12.60;99.90
38090;DHT22;23904;52.322;10.232;2022-09-12T03:46:33;12.60;99.90
38090;DHT22;23904;52.322;10.232;2022-09-12T03:48:58;12.60;99.90
38090;DHT22;23904;52.322;10.232;2022-09-12T03:51:24;12.60;99.90
38090;DHT22;23904;52.322;10.232;2022-09-12T03:53:50;12.70;99.90
38090;DHT22;23904;52.322;10.232;2022-09-12T03:56:16;12.70;99.90
38090;DHT22;23904;52.322;10.232;2022-09-12T03:58:42;12.70;99.90
38090;DHT22;23904;52.322;10.232;2022-09-12T04:01:13;12.70;99.90
38090;DHT22;23904;52.322;10.232;2022-09-12T04:03:42;12.70;99.90
38090;DHT22;23904;52.322;10.232;2022-09-12T04:06:10;12.70;99.90
38090;DHT22;23904;52.322;10.232;2022-09-12T04:08:37;12.70;99.90
38090;DHT22;23904;52.322;10.232;2022-09-12T04:11:08;12.70;99.90
38090;DHT22;23904;52.322;10.232;2022-09-12T04:13:40;12.60;99.90
38090;DHT22;23904;52.322;10.232;2022-09-12T04:16:06;12.60;99.90
38090;DHT22;23904;52.322;10.232;2022-09-12T04:18:33;12.60;99.90
38090;DHT22;23904;52.322;10.232;2022-09-12T04:21:08;12.60;99.90
38090;DHT22;23904;52.322;10.232;2022-09-12T04:23:36;12.60;99.90
38090;DHT22;23904;52.322;10.232;2022-09-12T04:26:06;12.60;99.90
38090;DHT22;23904;52.322;10.232;2022-09-12T04:28:34;12.60;99.90
38090;DHT22;23904;52.322;10.232;2022-09-12T04:31:02;12.60;99.90
38090;DHT22;23904;52.322;10.232;2022-09-12T04:33:29;12.60;99.90
38090;DHT22;23904;52.322;10.232;2022-09-12T04:35:54;12.60;99.90
38090;DHT22;23904;52.322;10.232;2022-09-12T04:38:20;12.60;99.90
38090;DHT22;23904;52.322;10.232;2022-09-12T04:40:46;12.60;99.90
38090;DHT22;23904;52.322;10.232;2022-09-12T04:43:11;12.60;99.90
38090;DHT22;23904;52.322;10.232;2022-09-12T04:45:37;12.60;99.90
38090;DHT22;23904;52.322;10.232;2022-09-12T04:48:03;12.60;99.90
38090;DHT22;23904;52.322;10.232;2022-09-12T04:50:29;12.60;99.90
38090;DHT22;23904;52.322;10.232;2022-09-12T04:52:55;12.60;99.90
38090;DHT22;23904;52.322;10.232;2022-09-12T04:55:21;12.70;99.90
38090;DHT22;23904;52.322;10.232;2022-09-12T04:57:47;12.60;99.90
38090;DHT22;23904;52.322;10.232;2022-09-12T05:00:14;12.60;99.90
38090;DHT22;23904;52.322;10.232;2022-09-12T05:02:40;12.60;99.90
38090;DHT22;23904;52.322;10.232;2022-09-12T05:05:07;12.60;99.90
38090;DHT22;23904;52.322;10.232;2022-09-12T05:07:33;12.60;99.90
38090;DHT22;23904;52.322;10.232;2022-09-12T05:09:59;12.60;99.90
38090;DHT22;23904;52.322;10.232;2022-09-12T05:12:26;12.60;99.90
38090;DHT22;23904;52.322;10.232;2022-09-12T05:14:51;12.70;99.90
38090;DHT22;23904;52.322;10.232;2022-09-12T05:17:17;12.70;99.90
38090;DHT22;23904;52.322;10.232;2022-09-12T05:19:43;12.70;99.90
38090;DHT22;23904;52.322;10.232;2022-09-12T05:22:08;12.70;99.90
38090;DHT22;23904;52.322;10.232;2022-09-12T05:24:34;12.80;99.90
38090;DHT22;23904;52.322;10.232;2022-09-12T05:27:02;12.80;99.90
38090;DHT22;23904;52.322;10.232;2022-09-12T05:29:29;12.80;99.90
38090;DHT22;23904;52.322;10.232;2022-09-12T05:31:55;12.90;99.90
38090;DHT22;23904;52.322;10.232;2022-09-12T05:34:21;12.90;99.90
38090;DHT22;23904;52.322;10.232;2022-09-12T05:36:46;12.90;99.90
38090;DHT22;23904;52.322;10.232;2022-09-12T05:39:13;13.00;99.90
38090;DHT22;23904;52.322;10.232;2022-09-12T05:41:39;13.10;99.90
38090;DHT22;23904;52.322;10.232;2022-09-12T05:44:09;13.10;99.90
38090;DHT22;23904;52.322;10.232;2022-09-12T05:46:38;13.20;99.90
38090;DHT22;23904;52.322;10.232;2022-09-12T05:49:08;13.20;99.90
38090;DHT22;23904;52.322;10.232;2022-09-12T05:51:37;13.20;99.90
38090;DHT22;23904;52.322;10.232;2022-09-12T05:54:06;13.30;99.90
38090;DHT22;23904;52.322;10.232;2022-09-12T05:56:36;13.30;99.90
38090;DHT22;23904;52.322;10.232;2022-09-12T05:59:06;13.30;99.90
38090;DHT22;23904;52.322;10.232;2022-09-12T06:01:36;13.40;99.90
38090;DHT22;23904;52.322;10.232;2022-09-12T06:04:04;13.40;99.90
38090;DHT22;23904;52.322;10.232;2022-09-12T06:06:31;13.50;99.90
38090;DHT22;23904;52.322;10.232;2022-09-12T06:09:00;13.50;99.90
38090;DHT22;23904;52.322;10.232;2022-09-12T06:11:30;13.60;99.90
38090;DHT22;23904;52.322;10.232;2022-09-12T06:13:58;13.60;99.90
38090;DHT22;23904;52.322;10.232;2022-09-12T06:16:30;13.60;99.90
38090;DHT22;23904;52.322;10.232;2022-09-12T06:19:01;13.70;99.90
38090;DHT22;23904;52.322;10.232;2022-09-12T06:21:44;13.80;99.90
38090;DHT22;23904;52.322;10.232;2022-09-12T06:24:11;13.90;99.90
38090;DHT22;23904;52.322;10.232;2022-09-12T06:26:36;13.90;99.90
38090;DHT22;23904;52.322;10.232;2022-09-12T06:29:02;14.00;99.90
38090;DHT22;23904;52.322;10.232;2022-09-12T06:31:30;14.00;99.90
38090;DHT22;23904;52.322;10.232;2022-09-12T06:34:04;14.00;99.90
38090;DHT22;23904;52.322;10.232;2022-09-12T06:36:33;14.00;99.90
38090;DHT22;23904;52.322;10.232;2022-09-12T06:39:04;14.00;99.90
38090;DHT22;23904;52.322;10.232;2022-09-12T06:41:32;14.10;99.90
38090;DHT22;23904;52.322;10.232;2022-09-12T06:43:59;14.20;99.90
38090;DHT22;23904;52.322;10.232;2022-09-12T06:46:26;14.20;99.90
38090;DHT22;23904;52.322;10.232;2022-09-12T06:48:54;14.40;99.90
38090;DHT22;23904;52.322;10.232;2022-09-12T06:51:21;14.40;99.90
38090;DHT22;23904;52.322;10.232;2022-09-12T06:53:47;14.50;99.90
38090;DHT22;23904;52.322;10.232;2022-09-12T06:56:15;14.60;99.90
38090;DHT22;23904;52.322;10.232;2022-09-12T06:58:43;14.60;99.90
38090;DHT22;23904;52.322;10.232;2022-09-12T07:01:24;14.70;99.90
38090;DHT22;23904;52.322;10.232;2022-09-12T07:03:59;14.80;99.90
38090;DHT22;23904;52.322;10.232;2022-09-12T07:06:28;14.90;99.90
38090;DHT22;23904;52.322;10.232;2022-09-12T07:08:59;14.90;99.90
38090;DHT22;23904;52.322;10.232;2022-09-12T07:11:29;14.90;99.90
38090;DHT22;23904;52.322;10.232;2022-09-12T07:13:57;15.10;99.90
38090;DHT22;23904;52.322;10.232;2022-09-12T07:16:24;15.20;99.90
38090;DHT22;23904;52.322;10.232;2022-09-12T07:18:51;15.20;99.90
38090;DHT22;23904;52.322;10.232;2022-09-12T07:21:18;15.20;99.90
38090;DHT22;23904;52.322;10.232;2022-09-12T07:23:44;15.20;99.90
38090;DHT22;23904;52.322;10.232;2022-09-12T07:26:11;15.30;99.90
38090;DHT22;23904;52.322;10.232;2022-09-12T07:28:38;15.30;99.90
38090;DHT22;23904;52.322;10.232;2022-09-12T07:31:06;15.40;99.90
38090;DHT22;23904;52.322;10.232;2022-09-12T07:33:36;15.50;99.90
38090;DHT22;23904;52.322;10.232;2022-09-12T07:36:04;15.60;99.90
38090;DHT22;23904;52.322;10.232;2022-09-12T07:38:36;15.60;99.90
38090;DHT22;23904;52.322;10.232;2022-09-12T07:41:18;15.80;99.90
38090;DHT22;23904;52.322;10.232;2022-09-12T07:43:46;16.00;99.90
38090;DHT22;23904;52.322;10.232;2022-09-12T07:46:13;16.20;99.90
38090;DHT22;23904;52.322;10.232;2022-09-12T07:48:39;16.40;99.90
38090;DHT22;23904;52.322;10.232;2022-09-12T07:51:07;16.60;99.90
38090;DHT22;23904;52.322;10.232;2022-09-12T07:53:36;16.70;99.90
38090;DHT22;23904;52.322;10.232;2022-09-12T07:56:04;16.80;99.90
38090;DHT22;23904;52.322;10.232;2022-09-12T07:58:32;17.10;99.90
38090;DHT22;23904;52.322;10.232;2022-09-12T08:01:06;17.30;99.90
38090;DHT22;23904;52.322;10.232;2022-09-12T08:03:37;17.60;99.90
38090;DHT22;23904;52.322;10.232;2022-09-12T08:06:17;17.80;99.90
38090;DHT22;23904;52.322;10.232;2022-09-12T08:08:48;18.10;99.90
38090;DHT22;23904;52.322;10.232;2022-09-12T08:11:18;18.40;99.90
38090;DHT22;23904;52.322;10.232;2022-09-12T08:13:45;18.50;99.90
38090;DHT22;23904;52.322;10.232;2022-09-12T08:16:13;18.40;99.90
38090;DHT22;23904;52.322;10.232;2022-09-12T08:18:40;18.50;99.90
38090;DHT22;23904;52.322;10.232;2022-09-12T08:21:14;18.90;99.90
38090;DHT22;23904;52.322;10.232;2022-09-12T08:23:42;19.20;99.90
38090;DHT22;23904;52.322;10.232;2022-09-12T08:26:09;20.30;99.90
38090;DHT22;23904;52.322;10.232;2022-09-12T08:28:36;21.20;99.90
38090;DHT22;23904;52.322;10.232;2022-09-12T08:31:11;22.70;99.90
38090;DHT22;23904;52.322;10.232;2022-09-12T08:33:41;24.60;99.90
38090;DHT22;23904;52.322;10.232;2022-09-12T08:36:18;25.50;97.60
38090;DHT22;23904;52.322;10.232;2022-09-12T08:38:50;26.40;95.90
38090;DHT22;23904;52.322;10.232;2022-09-12T08:49:33;29.00;85.40
38090;DHT22;23904;52.322;10.232;2022-09-12T08:52:12;29.50;81.20
38090;DHT22;23904;52.322;10.232;2022-09-12T08:54:41;28.50;84.00
38090;DHT22;23904;52.322;10.232;2022-09-12T08:57:10;28.60;83.30
38090;DHT22;23904;52.322;10.232;2022-09-12T08:59:41;28.40;83.00
38090;DHT22;23904;52.322;10.232;2022-09-12T09:08:45;30.70;76.40
38090;DHT22;23904;52.322;10.232;2022-09-12T09:14:04;32.50;67.50
38090;DHT22;23904;52.322;10.232;2022-09-12T09:16:58;32.50;65.00
38090;DHT22;23904;52.322;10.232;2022-09-12T09:19:35;33.50;61.90
38090;DHT22;23904;52.322;10.232;2022-09-12T09:22:12;32.10;63.10
38090;DHT22;23904;52.322;10.232;2022-09-12T09:24:46;33.20;61.20
38090;DHT22;23904;52.322;10.232;2022-09-12T09:27:36;33.10;60.50
38090;DHT22;23904;52.322;10.232;2022-09-12T09:30:13;32.90;59.80
38090;DHT22;23904;52.322;10.232;2022-09-12T09:32:40;31.40;63.90
38090;DHT22;23904;52.322;10.232;2022-09-12T09:35:28;31.30;64.90
38090;DHT22;23904;52.322;10.232;2022-09-12T09:43:43;29.60;70.50
38090;DHT22;23904;52.322;10.232;2022-09-12T09:46:08;31.40;65.10
38090;DHT22;23904;52.322;10.232;2022-09-12T09:48:37;32.30;61.40
38090;DHT22;23904;52.322;10.232;2022-09-12T09:51:06;32.80;60.00
38090;DHT22;23904;52.322;10.232;2022-09-12T09:53:55;33.30;58.30
38090;DHT22;23904;52.322;10.232;2022-09-12T09:59:25;32.30;57.80
38090;DHT22;23904;52.322;10.232;2022-09-12T10:04:39;32.40;58.30
38090;DHT22;23904;52.322;10.232;2022-09-12T10:07:17;31.30;58.90
38090;DHT22;23904;52.322;10.232;2022-09-12T10:10:17;31.00;60.90
38090;DHT22;23904;52.322;10.232;2022-09-12T10:12:44;31.30;60.40
38090;DHT22;23904;52.322;10.232;2022-09-12T10:15:22;30.90;62.70
38090;DHT22;23904;52.322;10.232;2022-09-12T10:17:50;31.40;61.00
38090;DHT22;23904;52.322;10.232;2022-09-12T10:20:42;32.60;57.30
38090;DHT22;23904;52.322;10.232;2022-09-12T10:25:55;31.50;59.00
38090;DHT22;23904;52.322;10.232;2022-09-12T10:28:46;30.60;61.20
38090;DHT22;23904;52.322;10.232;2022-09-12T10:31:22;30.50;62.10
38090;DHT22;23904;52.322;10.232;2022-09-12T10:33:55;30.20;61.00
38090;DHT22;23904;52.322;10.232;2022-09-12T10:36:23;29.60;63.20
38090;DHT22;23904;52.322;10.232;2022-09-12T10:38:53;30.20;61.70
38090;DHT22;23904;52.322;10.232;2022-09-12T10:41:20;30.80;59.50
38090;DHT22;23904;52.322;10.232;2022-09-12T10:43:46;31.40;58.40
38090;DHT22;23904;52.322;10.232;2022-09-12T10:48:49;30.90;59.30
38090;DHT22;23904;52.322;10.232;2022-09-12T10:54:03;29.50;62.10
38090;DHT22;23904;52.322;10.232;2022-09-12T10:56:37;29.60;61.30
38090;DHT22;23904;52.322;10.232;2022-09-12T11:05:52;30.60;58.50
38090;DHT22;23904;52.322;10.232;2022-09-12T11:11:36;29.20;63.10
38090;DHT22;23904;52.322;10.232;2022-09-12T11:18:26;30.00;60.00
38090;DHT22;23904;52.322;10.232;2022-09-12T11:40:52;29.10;59.10
38090;DHT22;23904;52.322;10.232;2022-09-12T11:43:47;29.00;59.60
38090;DHT22;23904;52.322;10.232;2022-09-12T11:51:36;28.50;61.40
38090;DHT22;23904;52.322;10.232;2022-09-12T12:00:03;29.20;60.20
38090;DHT22;23904;52.322;10.232;2022-09-12T12:02:36;28.50;62.30
38090;DHT22;23904;52.322;10.232;2022-09-12T12:07:56;28.70;60.10
38090;DHT22;23904;52.322;10.232;2022-09-12T12:10:28;28.50;61.50
38090;DHT22;23904;52.322;10.232;2022-09-12T12:12:59;28.20;62.30
38090;DHT22;23904;52.322;10.232;2022-09-12T12:15:27;28.20;61.10
38090;DHT22;23904;52.322;10.232;2022-09-12T12:18:06;27.80;61.60
38090;DHT22;23904;52.322;10.232;2022-09-12T12:20:33;27.80;62.60
38090;DHT22;23904;52.322;10.232;2022-09-12T12:22:59;27.40;61.80
38090;DHT22;23904;52.322;10.232;2022-09-12T12:25:49;27.00;63.40
38090;DHT22;23904;52.322;10.232;2022-09-12T12:31:08;26.20;67.40
38090;DHT22;23904;52.322;10.232;2022-09-12T12:36:29;26.00;68.50
38090;DHT22;23904;52.322;10.232;2022-09-12T12:38:58;25.80;69.10
38090;DHT22;23904;52.322;10.232;2022-09-12T12:43:53;24.70;74.70
38090;DHT22;23904;52.322;10.232;2022-09-12T12:46:25;24.80;72.40
38090;DHT22;23904;52.322;10.232;2022-09-12T12:48:52;24.50;72.30
38090;DHT22;23904;52.322;10.232;2022-09-12T12:54:26;24.40;71.80
38090;DHT22;23904;52.322;10.232;2022-09-12T12:57:27;24.20;72.90
38090;DHT22;23904;52.322;10.232;2022-09-12T13:05:36;24.00;75.10
38090;DHT22;23904;52.322;10.232;2022-09-12T13:10:49;24.20;72.90
38090;DHT22;23904;52.322;10.232;2022-09-12T13:16:32;24.40;73.40
38090;DHT22;23904;52.322;10.232;2022-09-12T13:19:10;24.50;72.10
38090;DHT22;23904;52.322;10.232;2022-09-12T13:22:06;24.40;73.10
38090;DHT22;23904;52.322;10.232;2022-09-12T13:24:41;24.50;72.10
38090;DHT22;23904;52.322;10.232;2022-09-12T13:27:25;24.20;72.50
38090;DHT22;23904;52.322;10.232;2022-09-12T13:30:12;24.30;72.70
38090;DHT22;23904;52.322;10.232;2022-09-12T13:32:40;24.30;73.30
38090;DHT22;23904;52.322;10.232;2022-09-12T13:41:13;24.40;72.10
38090;DHT22;23904;52.322;10.232;2022-09-12T13:43:43;24.30;72.50
38090;DHT22;23904;52.322;10.232;2022-09-12T13:46:17;24.00;74.60
38090;DHT22;23904;52.322;10.232;2022-09-12T13:48:50;23.90;74.50
38090;DHT22;23904;52.322;10.232;2022-09-12T13:51:25;24.00;75.10
38090;DHT22;23904;52.322;10.232;2022-09-12T13:53:54;23.80;77.30
38090;DHT22;23904;52.322;10.232;2022-09-12T13:56:23;23.80;76.70
38090;DHT22;23904;52.322;10.232;2022-09-12T13:59:00;23.90;74.30
38090;DHT22;23904;52.322;10.232;2022-09-12T14:01:43;23.90;73.60
38090;DHT22;23904;52.322;10.232;2022-09-12T14:04:18;23.90;74.10
38090;DHT22;23904;52.322;10.232;2022-09-12T14:07:14;23.90;73.60
38090;DHT22;23904;52.322;10.232;2022-09-12T14:09:51;23.90;73.20
38090;DHT22;23904;52.322;10.232;2022-09-12T14:12:36;23.90;74.40
38090;DHT22;23904;52.322;10.232;2022-09-12T14:15:05;23.80;73.80
38090;DHT22;23904;52.322;10.232;2022-09-12T14:17:36;23.70;76.20
38090;DHT22;23904;52.322;10.232;2022-09-12T14:20:11;23.70;75.10
38090;DHT22;23904;52.322;10.232;2022-09-12T14:22:39;23.70;72.90
38090;DHT22;23904;52.322;10.232;2022-09-12T14:25:06;23.80;71.70
38090;DHT22;23904;52.322;10.232;2022-09-12T14:27:45;23.90;71.50
38090;DHT22;23904;52.322;10.232;2022-09-12T14:30:29;24.00;71.90
38090;DHT22;23904;52.322;10.232;2022-09-12T14:35:33;24.10;69.90
38090;DHT22;23904;52.322;10.232;2022-09-12T14:40:42;24.10;69.40
38090;DHT22;23904;52.322;10.232;2022-09-12T14:43:36;23.90;70.30
38090;DHT22;23904;52.322;10.232;2022-09-12T14:46:06;24.20;71.00
38090;DHT22;23904;52.322;10.232;2022-09-12T14:48:52;24.20;70.80
38090;DHT22;23904;52.322;10.232;2022-09-12T14:51:30;24.30;69.10
38090;DHT22;23904;52.322;10.232;2022-09-12T14:53:57;24.30;69.80
38090;DHT22;23904;52.322;10.232;2022-09-12T14:59:35;24.00;70.70
38090;DHT22;23904;52.322;10.232;2022-09-12T15:04:47;24.20;69.20
38090;DHT22;23904;52.322;10.232;2022-09-12T15:07:27;24.10;70.50
38090;DHT22;23904;52.322;10.232;2022-09-12T15:10:05;23.90;70.20
38090;DHT22;23904;52.322;10.232;2022-09-12T15:15:38;23.50;72.40
38090;DHT22;23904;52.322;10.232;2022-09-12T15:18:05;23.30;72.50
38090;DHT22;23904;52.322;10.232;2022-09-12T15:20:38;23.20;73.00
38090;DHT22;23904;52.322;10.232;2022-09-12T15:23:11;23.20;73.70
38090;DHT22;23904;52.322;10.232;2022-09-12T15:25:40;23.20;75.00
38090;DHT22;23904;52.322;10.232;2022-09-12T15:28:16;23.10;75.00
38090;DHT22;23904;52.322;10.232;2022-09-12T15:30:46;23.20;73.80
38090;DHT22;23904;52.322;10.232;2022-09-12T15:33:17;23.10;72.30
38090;DHT22;23904;52.322;10.232;2022-09-12T15:35:44;23.20;72.20
38090;DHT22;23904;52.322;10.232;2022-09-12T15:38:10;23.20;72.00
38090;DHT22;23904;52.322;10.232;2022-09-12T15:40:35;23.20;71.60
38090;DHT22;23904;52.322;10.232;2022-09-12T15:43:01;23.20;73.40
38090;DHT22;23904;52.322;10.232;2022-09-12T15:45:30;23.20;71.60
38090;DHT22;23904;52.322;10.232;2022-09-12T15:47:58;23.20;71.00
38090;DHT22;23904;52.322;10.232;2022-09-12T15:50:24;23.00;72.20
38090;DHT22;23904;52.322;10.232;2022-09-12T15:52:50;22.90;73.80
38090;DHT22;23904;52.322;10.232;2022-09-12T15:55:21;22.90;71.40
38090;DHT22;23904;52.322;10.232;2022-09-12T15:57:49;22.90;71.90
38090;DHT22;23904;52.322;10.232;2022-09-12T16:00:16;22.80;72.10
38090;DHT22;23904;52.322;10.232;2022-09-12T16:02:43;22.70;72.10
38090;DHT22;23904;52.322;10.232;2022-09-12T16:05:21;22.60;72.00
38090;DHT22;23904;52.322;10.232;2022-09-12T16:07:53;22.60;72.30
38090;DHT22;23904;52.322;10.232;2022-09-12T16:10:22;22.60;71.70
38090;DHT22;23904;52.322;10.232;2022-09-12T16:12:50;22.50;71.50
38090;DHT22;23904;52.322;10.232;2022-09-12T16:15:21;22.40;71.60
38090;DHT22;23904;52.322;10.232;2022-09-12T16:17:48;22.30;72.30
38090;DHT22;23904;52.322;10.232;2022-09-12T16:20:14;22.30;72.60
38090;DHT22;23904;52.322;10.232;2022-09-12T16:22:40;22.20;72.40
38090;DHT22;23904;52.322;10.232;2022-09-12T16:25:07;22.20;73.10
38090;DHT22;23904;52.322;10.232;2022-09-12T16:27:33;22.20;74.00
38090;DHT22;23904;52.322;10.232;2022-09-12T16:29:59;22.10;74.70
38090;DHT22;23904;52.322;10.232;2022-09-12T16:32:25;22.10;75.30
38090;DHT22;23904;52.322;10.232;2022-09-12T16:34:51;22.00;74.30
38090;DHT22;23904;52.322;10.232;2022-09-12T16:37:17;22.00;74.90
38090;DHT22;23904;52.322;10.232;2022-09-12T16:39:43;22.00;76.50
38090;DHT22;23904;52.322;10.232;2022-09-12T16:42:09;22.00;76.00
38090;DHT22;23904;52.322;10.232;2022-09-12T16:44:34;21.90;76.00
38090;DHT22;23904;52.322;10.232;2022-09-12T16:47:00;21.90;76.50
38090;DHT22;23904;52.322;10.232;2022-09-12T16:49:25;21.90;77.30
38090;DHT22;23904;52.322;10.232;2022-09-12T16:51:51;21.80;79.40
38090;DHT22;23904;52.322;10.232;2022-09-12T16:54:17;21.70;80.10
38090;DHT22;23904;52.322;10.232;2022-09-12T16:56:43;21.70;80.40
38090;DHT22;23904;52.322;10.232;2022-09-12T16:59:09;21.60;79.20
38090;DHT22;23904;52.322;10.232;2022-09-12T17:01:38;21.50;81.10
38090;DHT22;23904;52.322;10.232;2022-09-12T17:04:04;21.50;81.80
38090;DHT22;23904;52.322;10.232;2022-09-12T17:06:32;21.40;81.90
38090;DHT22;23904;52.322;10.232;2022-09-12T17:08:59;21.30;81.50
38090;DHT22;23904;52.322;10.232;2022-09-12T17:11:30;21.30;82.00
38090;DHT22;23904;52.322;10.232;2022-09-12T17:13:58;21.20;81.20
38090;DHT22;23904;52.322;10.232;2022-09-12T17:16:25;21.20;82.30
38090;DHT22;23904;52.322;10.232;2022-09-12T17:18:52;21.10;84.00
38090;DHT22;23904;52.322;10.232;2022-09-12T17:21:19;21.10;85.00
38090;DHT22;23904;52.322;10.232;2022-09-12T17:23:45;21.00;85.50
38090;DHT22;23904;52.322;10.232;2022-09-12T17:26:12;20.90;86.20
38090;DHT22;23904;52.322;10.232;2022-09-12T17:28:38;20.80;86.70
38090;DHT22;23904;52.322;10.232;2022-09-12T17:31:06;20.80;87.30
38090;DHT22;23904;52.322;10.232;2022-09-12T17:33:34;20.70;87.20
38090;DHT22;23904;52.322;10.232;2022-09-12T17:36:01;20.60;87.10
38090;DHT22;23904;52.322;10.232;2022-09-12T17:38:31;20.60;87.50
38090;DHT22;23904;52.322;10.232;2022-09-12T17:41:07;20.50;87.50
38090;DHT22;23904;52.322;10.232;2022-09-12T17:43:35;20.50;87.60
38090;DHT22;23904;52.322;10.232;2022-09-12T17:46:03;20.40;88.50
38090;DHT22;23904;52.322;10.232;2022-09-12T17:48:29;20.40;87.90
38090;DHT22;23904;52.322;10.232;2022-09-12T17:50:55;20.30;90.00
38090;DHT22;23904;52.322;10.232;2022-09-12T17:53:21;20.30;90.20
38090;DHT22;23904;52.322;10.232;2022-09-12T17:55:46;20.20;90.10
38090;DHT22;23904;52.322;10.232;2022-09-12T17:58:12;20.10;89.80
38090;DHT22;23904;52.322;10.232;2022-09-12T18:00:38;20.10;90.40
38090;DHT22;23904;52.322;10.232;2022-09-12T18:03:23;20.10;90.50
38090;DHT22;23904;52.322;10.232;2022-09-12T18:05:52;20.10;89.30
38090;DHT22;23904;52.322;10.232;2022-09-12T18:08:21;20.20;85.20
38090;DHT22;23904;52.322;10.232;2022-09-12T18:10:48;20.40;83.80
38090;DHT22;23904;52.322;10.232;2022-09-12T18:13:15;20.60;83.20